sensor_id;sensor_type;location;lat;lon;timestamp;pressure;altitude;pressure_sealevel;temperature;humidity
79584;BME280;69053;57.338;18.700;2023-04-24T00:04:53;100478.47;;;6.71;86.29
79584;BME280;69053;57.338;18.700;2023-04-24T00:09:54;100472.94;;;6.58;86.17
79584;BME280;69053;57.338;18.700;2023-04-24T00:14:55;100478.00;;;6.40;85.87
79584;BME280;69053;57.338;18.700;2023-04-24T00:19:56;100489.19;;;6.15;85.88
79584;BME280;69053;57.338;18.700;2023-04-24T00:24:58;100489.81;;;5.95;85.40
79584;BME280;69053;57.338;18.700;2023-04-24T00:29:59;100487.13;;;5.80;85.88
79584;BME280;69053;57.338;18.700;2023-04-24T00:34:59;100485.31;;;5.66;85.79
79584;BME280;69053;57.338;18.700;2023-04-24T00:40:00;100488.31;;;5.56;85.69
79584;BME280;69053;57.338;18.700;2023-04-24T00:45:02;100492.44;;;5.37;85.18
79584;BME280;69053;57.338;18.700;2023-04-24T00:50:04;100480.97;;;5.20;85.47
79584;BME280;69053;57.338;18.700;2023-04-24T00:55:05;100479.59;;;5.10;85.58
79584;BME280;69053;57.338;18.700;2023-04-24T01:00:06;100487.50;;;4.96;85.07
79584;BME280;69053;57.338;18.700;2023-04-24T01:05:14;100485.06;;;4.86;85.36
79584;BME280;69053;57.338;18.700;2023-04-24T01:10:15;100486.75;;;4.87;85.36
79584;BME280;69053;57.338;18.700;2023-04-24T01:15:18;100492.25;;;4.94;86.14
79584;BME280;69053;57.338;18.700;2023-04-24T01:20:18;100488.22;;;5.05;85.27
79584;BME280;69053;57.338;18.700;2023-04-24T01:25:21;100508.34;;;5.17;85.29
79584;BME280;69053;57.338;18.700;2023-04-24T01:30:22;100514.13;;;5.29;85.19
79584;BME280;69053;57.338;18.700;2023-04-24T01:35:23;100513.13;;;5.45;85.69
79584;BME280;69053;57.338;18.700;2023-04-24T01:40:23;100509.09;;;5.56;85.34
79584;BME280;69053;57.338;18.700;2023-04-24T01:45:24;100518.75;;;5.65;84.93
79584;BME280;69053;57.338;18.700;2023-04-24T01:50:25;100518.66;;;5.73;85.41
79584;BME280;69053;57.338;18.700;2023-04-24T01:55:25;100517.69;;;5.81;85.55
79584;BME280;69053;57.338;18.700;2023-04-24T02:00:26;100523.84;;;5.90;85.26
79584;BME280;69053;57.338;18.700;2023-04-24T02:05:27;100522.09;;;5.97;85.32
79584;BME280;69053;57.338;18.700;2023-04-24T02:10:27;100520.94;;;6.06;85.71
79584;BME280;69053;57.338;18.700;2023-04-24T02:15:28;100515.41;;;6.14;86.49
79584;BME280;69053;57.338;18.700;2023-04-24T02:20:28;100515.50;;;6.21;86.39
79584;BME280;69053;57.338;18.700;2023-04-24T02:25:29;100510.97;;;6.28;86.08
79584;BME280;69053;57.338;18.700;2023-04-24T02:30:30;100520.19;;;6.34;86.63
79584;BME280;69053;57.338;18.700;2023-04-24T02:35:30;100516.25;;;6.36;86.60
79584;BME280;69053;57.338;18.700;2023-04-24T02:40:31;100514.38;;;6.37;87.07
79584;BME280;69053;57.338;18.700;2023-04-24T02:45:32;100503.19;;;6.40;86.71
79584;BME280;69053;57.338;18.700;2023-04-24T02:50:34;100507.97;;;6.38;86.93
79584;BME280;69053;57.338;18.700;2023-04-24T02:55:36;100509.16;;;6.35;87.43
79584;BME280;69053;57.338;18.700;2023-04-24T03:00:36;100504.19;;;6.39;87.20
79584;BME280;69053;57.338;18.700;2023-04-24T03:05:37;100496.72;;;6.41;87.03
79584;BME280;69053;57.338;18.700;2023-04-24T03:10:37;100494.88;;;6.42;86.87
79584;BME280;69053;57.338;18.700;2023-04-24T03:15:38;100503.81;;;6.42;87.15
79584;BME280;69053;57.338;18.700;2023-04-24T03:20:38;100494.28;;;6.46;87.10
79584;BME280;69053;57.338;18.700;2023-04-24T03:25:39;100495.50;;;6.44;86.73
79584;BME280;69053;57.338;18.700;2023-04-24T03:30:41;100500.72;;;6.45;86.88
79584;BME280;69053;57.338;18.700;2023-04-24T03:35:41;100504.91;;;6.48;86.91
79584;BME280;69053;57.338;18.700;2023-04-24T03:40:42;100521.13;;;6.48;87.01
79584;BME280;69053;57.338;18.700;2023-04-24T03:45:43;100526.97;;;6.45;87.47
79584;BME280;69053;57.338;18.700;2023-04-24T03:50:44;100520.31;;;6.47;87.35
79584;BME280;69053;57.338;18.700;2023-04-24T03:55:44;100518.31;;;6.56;87.37
79584;BME280;69053;57.338;18.700;2023-04-24T04:00:45;100526.09;;;6.66;87.29
79584;BME280;69053;57.338;18.700;2023-04-24T04:05:48;100530.16;;;6.76;87.04
79584;BME280;69053;57.338;18.700;2023-04-24T04:10:48;100541.09;;;6.90;86.90
79584;BME280;69053;57.338;18.700;2023-04-24T04:15:49;100538.63;;;6.95;86.70
79584;BME280;69053;57.338;18.700;2023-04-24T04:20:50;100549.06;;;6.98;87.10
79584;BME280;69053;57.338;18.700;2023-04-24T04:25:50;100540.34;;;7.03;87.27
79584;BME280;69053;57.338;18.700;2023-04-24T04:30:52;100547.09;;;7.13;87.26
79584;BME280;69053;57.338;18.700;2023-04-24T04:35:55;100552.09;;;7.17;87.13
79584;BME280;69053;57.338;18.700;2023-04-24T04:40:57;100549.63;;;7.22;87.23
79584;BME280;69053;57.338;18.700;2023-04-24T04:45:57;100556.88;;;7.14;88.15
79584;BME280;69053;57.338;18.700;2023-04-24T04:50:58;100554.03;;;7.23;88.41
79584;BME280;69053;57.338;18.700;2023-04-24T04:55:58;100557.38;;;7.25;88.66
79584;BME280;69053;57.338;18.700;2023-04-24T05:01:00;100554.28;;;7.28;88.55
79584;BME280;69053;57.338;18.700;2023-04-24T05:06:00;100558.97;;;7.47;87.92
79584;BME280;69053;57.338;18.700;2023-04-24T05:11:01;100572.41;;;7.62;87.54
79584;BME280;69053;57.338;18.700;2023-04-24T05:16:01;100571.47;;;7.83;87.11
79584;BME280;69053;57.338;18.700;2023-04-24T05:21:02;100569.44;;;7.99;87.01
79584;BME280;69053;57.338;18.700;2023-04-24T05:26:18;100569.91;;;8.09;86.72
79584;BME280;69053;57.338;18.700;2023-04-24T05:31:19;100574.75;;;8.20;86.51
79584;BME280;69053;57.338;18.700;2023-04-24T05:36:23;100579.78;;;8.37;86.00
79584;BME280;69053;57.338;18.700;2023-04-24T05:41:23;100576.75;;;8.53;85.82
79584;BME280;69053;57.338;18.700;2023-04-24T05:46:24;100564.81;;;8.54;86.21
79584;BME280;69053;57.338;18.700;2023-04-24T05:51:27;100584.06;;;8.73;85.91
79584;BME280;69053;57.338;18.700;2023-04-24T05:56:28;100575.09;;;9.06;84.66
79584;BME280;69053;57.338;18.700;2023-04-24T06:01:30;100586.16;;;9.31;84.50
79584;BME280;69053;57.338;18.700;2023-04-24T06:06:31;100582.78;;;9.49;83.85
79584;BME280;69053;57.338;18.700;2023-04-24T06:11:32;100569.56;;;9.59;83.43
79584;BME280;69053;57.338;18.700;2023-04-24T06:16:33;100565.16;;;9.71;83.11
79584;BME280;69053;57.338;18.700;2023-04-24T06:21:33;100558.25;;;9.69;82.66
79584;BME280;69053;57.338;18.700;2023-04-24T06:26:35;100564.50;;;9.83;82.87
79584;BME280;69053;57.338;18.700;2023-04-24T06:31:35;100567.91;;;10.17;82.97
79584;BME280;69053;57.338;18.700;2023-04-24T06:36:37;100558.44;;;10.64;82.21
79584;BME280;69053;57.338;18.700;2023-04-24T06:41:38;100566.75;;;11.01;80.81
79584;BME280;69053;57.338;18.700;2023-04-24T06:46:40;100566.28;;;11.30;79.99
79584;BME280;69053;57.338;18.700;2023-04-24T06:51:42;100562.00;;;11.59;79.12
79584;BME280;69053;57.338;18.700;2023-04-24T06:56:43;100556.84;;;11.69;77.77
79584;BME280;69053;57.338;18.700;2023-04-24T07:01:46;100564.88;;;11.64;77.85
79584;BME280;69053;57.338;18.700;2023-04-24T07:06:47;100564.41;;;11.67;76.89
79584;BME280;69053;57.338;18.700;2023-04-24T07:11:47;100568.00;;;11.68;76.57
79584;BME280;69053;57.338;18.700;2023-04-24T07:16:48;100564.56;;;11.72;75.94
79584;BME280;69053;57.338;18.700;2023-04-24T07:21:51;100560.69;;;11.61;75.39
79584;BME280;69053;57.338;18.700;2023-04-24T07:26:57;100554.94;;;11.51;75.53
79584;BME280;69053;57.338;18.700;2023-04-24T07:32:36;100567.56;;;11.27;75.37
79584;BME280;69053;57.338;18.700;2023-04-24T07:37:37;100572.94;;;11.34;74.32
79584;BME280;69053;57.338;18.700;2023-04-24T07:42:38;100584.88;;;11.14;73.99
79584;BME280;69053;57.338;18.700;2023-04-24T07:47:39;100573.06;;;10.70;73.60
79584;BME280;69053;57.338;18.700;2023-04-24T07:52:43;100580.06;;;10.84;73.29
79584;BME280;69053;57.338;18.700;2023-04-24T07:57:44;100582.03;;;11.02;72.24
79584;BME280;69053;57.338;18.700;2023-04-24T08:02:45;100589.75;;;10.80;72.29
79584;BME280;69053;57.338;18.700;2023-04-24T08:07:46;100588.34;;;10.39;72.13
79584;BME280;69053;57.338;18.700;2023-04-24T08:12:48;100592.66;;;10.02;73.31
79584;BME280;69053;57.338;18.700;2023-04-24T08:17:49;100601.72;;;9.89;74.00
79584;BME280;69053;57.338;18.700;2023-04-24T08:22:50;100602.88;;;9.54;74.86
79584;BME280;69053;57.338;18.700;2023-04-24T08:27:51;100604.13;;;9.38;75.65
79584;BME280;69053;57.338;18.700;2023-04-24T08:32:52;100604.34;;;9.37;75.83
79584;BME280;69053;57.338;18.700;2023-04-24T08:37:52;100600.97;;;9.48;75.23
79584;BME280;69053;57.338;18.700;2023-04-24T08:42:54;100594.41;;;9.83;75.48
79584;BME280;69053;57.338;18.700;2023-04-24T08:47:57;100593.38;;;10.36;74.16
79584;BME280;69053;57.338;18.700;2023-04-24T08:52:58;100607.09;;;10.61;73.62
79584;BME280;69053;57.338;18.700;2023-04-24T08:57:59;100605.94;;;10.75;72.43
79584;BME280;69053;57.338;18.700;2023-04-24T09:03:00;100614.44;;;10.85;71.90
79584;BME280;69053;57.338;18.700;2023-04-24T09:08:04;100625.41;;;10.79;71.94
79584;BME280;69053;57.338;18.700;2023-04-24T09:13:05;100626.34;;;10.66;71.19
79584;BME280;69053;57.338;18.700;2023-04-24T09:18:09;100621.09;;;10.64;71.34
79584;BME280;69053;57.338;18.700;2023-04-24T09:23:09;100613.28;;;10.75;70.63
79584;BME280;69053;57.338;18.700;2023-04-24T09:28:16;100616.72;;;10.57;69.93
79584;BME280;69053;57.338;18.700;2023-04-24T09:33:17;100607.63;;;10.76;70.04
79584;BME280;69053;57.338;18.700;2023-04-24T09:38:17;100613.28;;;10.75;69.17
79584;BME280;69053;57.338;18.700;2023-04-24T09:43:18;100615.69;;;10.58;69.79
79584;BME280;69053;57.338;18.700;2023-04-24T09:48:19;100610.13;;;11.03;68.69
79584;BME280;69053;57.338;18.700;2023-04-24T09:53:30;100604.78;;;11.40;67.54
79584;BME280;69053;57.338;18.700;2023-04-24T09:58:31;100607.00;;;11.93;66.16
79584;BME280;69053;57.338;18.700;2023-04-24T10:03:34;100605.88;;;12.31;64.90
79584;BME280;69053;57.338;18.700;2023-04-24T10:08:38;100612.69;;;12.10;65.08
79584;BME280;69053;57.338;18.700;2023-04-24T10:13:42;100615.56;;;11.97;64.49
79584;BME280;69053;57.338;18.700;2023-04-24T10:18:43;100616.81;;;11.76;65.22
79584;BME280;69053;57.338;18.700;2023-04-24T10:23:44;100621.41;;;11.75;64.78
79584;BME280;69053;57.338;18.700;2023-04-24T10:28:50;100616.34;;;11.60;65.31
79584;BME280;69053;57.338;18.700;2023-04-24T10:33:52;100606.34;;;11.73;65.01
79584;BME280;69053;57.338;18.700;2023-04-24T10:38:55;100598.41;;;11.90;64.84
79584;BME280;69053;57.338;18.700;2023-04-24T10:44:14;100594.16;;;12.12;64.08
79584;BME280;69053;57.338;18.700;2023-04-24T10:49:28;100589.44;;;12.19;62.78
79584;BME280;69053;57.338;18.700;2023-04-24T10:54:49;100584.94;;;12.25;62.27
79584;BME280;69053;57.338;18.700;2023-04-24T11:00:16;100583.50;;;12.53;62.17
79584;BME280;69053;57.338;18.700;2023-04-24T11:05:19;100604.25;;;12.42;61.75
79584;BME280;69053;57.338;18.700;2023-04-24T11:10:27;100608.63;;;12.13;62.63
79584;BME280;69053;57.338;18.700;2023-04-24T11:15:30;100620.00;;;12.10;62.93
79584;BME280;69053;57.338;18.700;2023-04-24T11:20:31;100620.72;;;11.61;63.52
79584;BME280;69053;57.338;18.700;2023-04-24T11:25:32;100602.66;;;11.42;64.19
79584;BME280;69053;57.338;18.700;2023-04-24T11:30:39;100615.75;;;11.33;64.44
79584;BME280;69053;57.338;18.700;2023-04-24T11:35:43;100605.75;;;11.71;63.88
79584;BME280;69053;57.338;18.700;2023-04-24T11:40:44;100600.91;;;11.91;63.50
79584;BME280;69053;57.338;18.700;2023-04-24T11:45:49;100606.50;;;11.96;63.29
79584;BME280;69053;57.338;18.700;2023-04-24T11:50:50;100599.28;;;11.83;63.38
79584;BME280;69053;57.338;18.700;2023-04-24T11:55:50;100592.16;;;11.82;63.66
79584;BME280;69053;57.338;18.700;2023-04-24T12:00:57;100599.16;;;12.15;62.92
79584;BME280;69053;57.338;18.700;2023-04-24T12:06:05;100587.47;;;12.08;63.11
79584;BME280;69053;57.338;18.700;2023-04-24T12:11:07;100581.34;;;12.13;63.65
79584;BME280;69053;57.338;18.700;2023-04-24T12:16:08;100567.22;;;12.16;63.43
79584;BME280;69053;57.338;18.700;2023-04-24T12:26:18;100569.84;;;12.53;61.79
79584;BME280;69053;57.338;18.700;2023-04-24T12:31:21;100566.41;;;11.97;62.74
79584;BME280;69053;57.338;18.700;2023-04-24T12:36:21;100575.44;;;11.97;63.20
79584;BME280;69053;57.338;18.700;2023-04-24T12:41:22;100563.38;;;11.87;63.31
79584;BME280;69053;57.338;18.700;2023-04-24T12:46:22;100566.66;;;11.52;64.10
79584;BME280;69053;57.338;18.700;2023-04-24T12:51:23;100565.84;;;11.51;64.53
79584;BME280;69053;57.338;18.700;2023-04-24T12:56:24;100556.06;;;11.62;64.20
79584;BME280;69053;57.338;18.700;2023-04-24T13:01:25;100553.41;;;11.37;64.81
79584;BME280;69053;57.338;18.700;2023-04-24T13:06:26;100547.53;;;11.15;65.27
79584;BME280;69053;57.338;18.700;2023-04-24T13:11:27;100543.66;;;11.04;65.89
79584;BME280;69053;57.338;18.700;2023-04-24T13:16:28;100546.22;;;10.74;66.82
79584;BME280;69053;57.338;18.700;2023-04-24T13:21:29;100528.31;;;10.59;66.22
79584;BME280;69053;57.338;18.700;2023-04-24T13:26:34;100528.09;;;10.61;66.87
79584;BME280;69053;57.338;18.700;2023-04-24T13:31:36;100540.03;;;10.60;66.21
79584;BME280;69053;57.338;18.700;2023-04-24T13:36:36;100522.22;;;10.32;66.44
79584;BME280;69053;57.338;18.700;2023-04-24T13:41:37;100525.69;;;10.07;67.29
79584;BME280;69053;57.338;18.700;2023-04-24T13:46:38;100509.59;;;9.99;67.57
79584;BME280;69053;57.338;18.700;2023-04-24T13:51:38;100499.25;;;10.14;67.33
79584;BME280;69053;57.338;18.700;2023-04-24T13:56:39;100492.25;;;10.32;67.57
79584;BME280;69053;57.338;18.700;2023-04-24T14:01:41;100486.34;;;10.42;67.32
79584;BME280;69053;57.338;18.700;2023-04-24T14:06:41;100487.78;;;10.44;67.53
79584;BME280;69053;57.338;18.700;2023-04-24T14:11:42;100482.66;;;10.55;66.79
79584;BME280;69053;57.338;18.700;2023-04-24T14:16:42;100462.03;;;10.40;66.91
79584;BME280;69053;57.338;18.700;2023-04-24T14:21:43;100457.06;;;10.30;66.67
79584;BME280;69053;57.338;18.700;2023-04-24T14:26:43;100448.13;;;9.85;67.93
79584;BME280;69053;57.338;18.700;2023-04-24T14:31:44;100446.28;;;9.79;68.42
79584;BME280;69053;57.338;18.700;2023-04-24T14:36:45;100428.84;;;10.25;67.25
79584;BME280;69053;57.338;18.700;2023-04-24T14:41:45;100419.09;;;10.42;66.25
79584;BME280;69053;57.338;18.700;2023-04-24T14:46:46;100435.28;;;10.30;66.73
79584;BME280;69053;57.338;18.700;2023-04-24T14:51:46;100435.22;;;10.05;67.78
79584;BME280;69053;57.338;18.700;2023-04-24T14:56:47;100429.34;;;10.08;67.71
79584;BME280;69053;57.338;18.700;2023-04-24T15:01:47;100415.00;;;9.94;67.75
79584;BME280;69053;57.338;18.700;2023-04-24T15:06:48;100423.38;;;9.93;68.02
79584;BME280;69053;57.338;18.700;2023-04-24T15:11:51;100421.38;;;9.82;68.46
79584;BME280;69053;57.338;18.700;2023-04-24T15:16:51;100425.44;;;9.59;69.47
79584;BME280;69053;57.338;18.700;2023-04-24T15:21:51;100427.00;;;9.42;69.56
79584;BME280;69053;57.338;18.700;2023-04-24T15:26:54;100423.72;;;9.26;70.11
79584;BME280;69053;57.338;18.700;2023-04-24T15:31:55;100423.81;;;8.86;70.88
79584;BME280;69053;57.338;18.700;2023-04-24T15:36:59;100425.13;;;8.50;72.07
79584;BME280;69053;57.338;18.700;2023-04-24T15:41:59;100424.66;;;8.33;72.98
79584;BME280;69053;57.338;18.700;2023-04-24T15:47:00;100437.00;;;8.29;73.02
79584;BME280;69053;57.338;18.700;2023-04-24T15:52:01;100439.69;;;8.09;74.23
79584;BME280;69053;57.338;18.700;2023-04-24T15:57:02;100445.91;;;7.89;74.95
79584;BME280;69053;57.338;18.700;2023-04-24T16:02:03;100439.44;;;7.84;75.04
79584;BME280;69053;57.338;18.700;2023-04-24T16:07:04;100443.16;;;7.76;75.55
79584;BME280;69053;57.338;18.700;2023-04-24T16:12:04;100430.41;;;7.70;75.68
79584;BME280;69053;57.338;18.700;2023-04-24T16:17:05;100439.34;;;7.57;76.17
79584;BME280;69053;57.338;18.700;2023-04-24T16:22:06;100422.97;;;7.30;76.89
79584;BME280;69053;57.338;18.700;2023-04-24T16:27:06;100423.75;;;7.18;77.06
79584;BME280;69053;57.338;18.700;2023-04-24T16:32:08;100423.13;;;7.16;77.31
79584;BME280;69053;57.338;18.700;2023-04-24T16:37:08;100418.31;;;7.11;77.58
79584;BME280;69053;57.338;18.700;2023-04-24T16:42:12;100398.47;;;7.04;78.31
79584;BME280;69053;57.338;18.700;2023-04-24T16:47:13;100399.13;;;7.06;78.14
79584;BME280;69053;57.338;18.700;2023-04-24T16:52:14;100389.09;;;7.00;78.61
79584;BME280;69053;57.338;18.700;2023-04-24T16:57:17;100391.97;;;6.91;79.00
79584;BME280;69053;57.338;18.700;2023-04-24T17:02:17;100388.63;;;6.96;79.04
79584;BME280;69053;57.338;18.700;2023-04-24T17:07:18;100382.59;;;6.94;79.39
79584;BME280;69053;57.338;18.700;2023-04-24T17:12:18;100363.16;;;6.84;80.21
79584;BME280;69053;57.338;18.700;2023-04-24T17:17:19;100372.31;;;6.76;80.76
79584;BME280;69053;57.338;18.700;2023-04-24T17:22:22;100373.53;;;6.73;80.51
79584;BME280;69053;57.338;18.700;2023-04-24T17:27:22;100370.81;;;6.73;80.81
79584;BME280;69053;57.338;18.700;2023-04-24T17:32:24;100372.34;;;6.83;80.91
79584;BME280;69053;57.338;18.700;2023-04-24T17:37:25;100368.19;;;6.87;81.00
79584;BME280;69053;57.338;18.700;2023-04-24T17:42:26;100360.47;;;6.84;81.18
79584;BME280;69053;57.338;18.700;2023-04-24T17:47:26;100367.13;;;6.81;81.40
79584;BME280;69053;57.338;18.700;2023-04-24T17:52:29;100367.13;;;6.81;81.41
79584;BME280;69053;57.338;18.700;2023-04-24T17:57:30;100367.31;;;6.80;81.80
79584;BME280;69053;57.338;18.700;2023-04-24T18:02:30;100358.56;;;6.78;82.47
79584;BME280;69053;57.338;18.700;2023-04-24T18:07:52;100350.81;;;6.68;83.08
79584;BME280;69053;57.338;18.700;2023-04-24T18:18:25;100346.22;;;6.68;83.63
79584;BME280;69053;57.338;18.700;2023-04-24T18:23:25;100325.81;;;6.66;83.93
79584;BME280;69053;57.338;18.700;2023-04-24T18:28:26;100335.56;;;6.60;84.16
79584;BME280;69053;57.338;18.700;2023-04-24T18:33:28;100327.22;;;6.55;84.69
79584;BME280;69053;57.338;18.700;2023-04-24T18:38:29;100326.75;;;6.51;84.65
79584;BME280;69053;57.338;18.700;2023-04-24T18:43:30;100325.69;;;6.46;84.90
79584;BME280;69053;57.338;18.700;2023-04-24T18:48:31;100318.78;;;6.36;86.16
79584;BME280;69053;57.338;18.700;2023-04-24T18:53:31;100320.00;;;6.34;85.93
79584;BME280;69053;57.338;18.700;2023-04-24T18:58:32;100337.09;;;6.34;86.21
79584;BME280;69053;57.338;18.700;2023-04-24T19:03:32;100327.09;;;6.35;86.81
79584;BME280;69053;57.338;18.700;2023-04-24T19:08:33;100313.16;;;6.38;86.88
79584;BME280;69053;57.338;18.700;2023-04-24T19:13:33;100301.72;;;6.43;86.81
79584;BME280;69053;57.338;18.700;2023-04-24T19:18:34;100295.50;;;6.42;86.68
79584;BME280;69053;57.338;18.700;2023-04-24T19:23:44;100281.97;;;6.42;86.88
79584;BME280;69053;57.338;18.700;2023-04-24T19:28:52;100292.59;;;6.44;86.67
79584;BME280;69053;57.338;18.700;2023-04-24T19:33:56;100292.19;;;6.47;87.20
79584;BME280;69053;57.338;18.700;2023-04-24T19:38:57;100290.31;;;6.47;87.21
79584;BME280;69053;57.338;18.700;2023-04-24T19:43:57;100277.63;;;6.48;87.21
79584;BME280;69053;57.338;18.700;2023-04-24T19:48:58;100268.25;;;6.44;87.57
79584;BME280;69053;57.338;18.700;2023-04-24T19:53:58;100254.72;;;6.44;88.01
79584;BME280;69053;57.338;18.700;2023-04-24T19:58:59;100245.78;;;6.43;87.55
79584;BME280;69053;57.338;18.700;2023-04-24T20:04:00;100222.06;;;6.45;88.10
79584;BME280;69053;57.338;18.700;2023-04-24T20:09:01;100214.97;;;6.44;88.25
79584;BME280;69053;57.338;18.700;2023-04-24T20:14:02;100215.38;;;6.48;88.51
79584;BME280;69053;57.338;18.700;2023-04-24T20:19:02;100205.00;;;6.51;88.50
79584;BME280;69053;57.338;18.700;2023-04-24T20:24:03;100197.72;;;6.52;88.89
79584;BME280;69053;57.338;18.700;2023-04-24T20:29:05;100182.94;;;6.54;88.58
79584;BME280;69053;57.338;18.700;2023-04-24T20:34:07;100165.50;;;6.57;88.83
79584;BME280;69053;57.338;18.700;2023-04-24T20:39:08;100153.22;;;6.61;88.66
79584;BME280;69053;57.338;18.700;2023-04-24T20:44:09;100154.69;;;6.64;88.49
79584;BME280;69053;57.338;18.700;2023-04-24T20:49:09;100130.31;;;6.64;88.76
79584;BME280;69053;57.338;18.700;2023-04-24T20:54:10;100123.44;;;6.61;88.39
79584;BME280;69053;57.338;18.700;2023-04-24T20:59:10;100095.94;;;6.57;89.05
79584;BME280;69053;57.338;18.700;2023-04-24T21:04:11;100114.47;;;6.54;88.79
79584;BME280;69053;57.338;18.700;2023-04-24T21:09:11;100102.41;;;6.56;89.17
79584;BME280;69053;57.338;18.700;2023-04-24T21:14:12;100090.94;;;6.54;89.37
79584;BME280;69053;57.338;18.700;2023-04-24T21:19:13;100087.63;;;6.52;88.73
79584;BME280;69053;57.338;18.700;2023-04-24T21:24:14;100087.81;;;6.51;88.71
79584;BME280;69053;57.338;18.700;2023-04-24T21:29:15;100101.97;;;6.53;88.88
79584;BME280;69053;57.338;18.700;2023-04-24T21:34:16;100100.50;;;6.44;88.73
79584;BME280;69053;57.338;18.700;2023-04-24T21:39:16;100097.56;;;6.32;89.08
79584;BME280;69053;57.338;18.700;2023-04-24T21:44:17;100124.56;;;6.25;88.95
79584;BME280;69053;57.338;18.700;2023-04-24T21:49:18;100111.06;;;6.25;88.39
79584;BME280;69053;57.338;18.700;2023-04-24T21:54:18;100109.59;;;6.23;88.60
79584;BME280;69053;57.338;18.700;2023-04-24T21:59:20;100108.13;;;6.20;88.59
79584;BME280;69053;57.338;18.700;2023-04-24T22:04:20;100105.41;;;6.20;88.78
79584;BME280;69053;57.338;18.700;2023-04-24T22:09:21;100107.72;;;6.23;88.60
79584;BME280;69053;57.338;18.700;2023-04-24T22:14:22;100105.25;;;6.28;89.02
79584;BME280;69053;57.338;18.700;2023-04-24T22:19:22;100096.94;;;6.36;88.41
79584;BME280;69053;57.338;18.700;2023-04-24T22:24:25;100106.50;;;6.39;88.74
79584;BME280;69053;57.338;18.700;2023-04-24T22:29:25;100098.19;;;6.41;89.00
79584;BME280;69053;57.338;18.700;2023-04-24T22:34:26;100101.13;;;6.46;88.73
79584;BME280;69053;57.338;18.700;2023-04-24T22:39:27;100101.16;;;6.52;88.29
79584;BME280;69053;57.338;18.700;2023-04-24T22:44:27;100093.66;;;6.54;88.05
79584;BME280;69053;57.338;18.700;2023-04-24T22:49:28;100092.22;;;6.52;88.66
79584;BME280;69053;57.338;18.700;2023-04-24T22:54:30;100083.44;;;6.43;88.41
79584;BME280;69053;57.338;18.700;2023-04-24T22:59:32;100098.38;;;6.32;88.94
79584;BME280;69053;57.338;18.700;2023-04-24T23:04:32;100094.03;;;6.31;90.10
79584;BME280;69053;57.338;18.700;2023-04-24T23:09:33;100084.63;;;6.27;90.04
79584;BME280;69053;57.338;18.700;2023-04-24T23:14:33;100086.91;;;6.24;89.94
79584;BME280;69053;57.338;18.700;2023-04-24T23:19:34;100086.69;;;6.18;89.51
79584;BME280;69053;57.338;18.700;2023-04-24T23:24:34;100097.69;;;6.17;89.16
79584;BME280;69053;57.338;18.700;2023-04-24T23:29:35;100103.97;;;6.17;88.72
79584;BME280;69053;57.338;18.700;2023-04-24T23:34:37;100109.81;;;6.21;88.93
79584;BME280;69053;57.338;18.700;2023-04-24T23:39:38;100109.41;;;6.24;88.93
79584;BME280;69053;57.338;18.700;2023-04-24T23:44:39;100111.47;;;6.29;89.00
79584;BME280;69053;57.338;18.700;2023-04-24T23:49:39;100106.31;;;6.41;89.48
79584;BME280;69053;57.338;18.700;2023-04-24T23:54:40;100107.38;;;6.53;89.99
79584;BME280;69053;57.338;18.700;2023-04-24T23:59:40;100106.78;;;6.64;90.14
